sensor_id;sensor_type;location;lat;lon;timestamp;pressure;altitude;pressure_sealevel;temperature;humidity
70314;BME280;71040;47.526;18.986;2024-02-23T00:02:39;98426.00;;;9.30;89.76
70314;BME280;71040;47.526;18.986;2024-02-23T00:07:39;98425.06;;;9.31;89.80
70314;BME280;71040;47.526;18.986;2024-02-23T00:12:42;98424.22;;;9.31;89.96
70314;BME280;71040;47.526;18.986;2024-02-23T00:17:46;98423.38;;;9.30;89.95
70314;BME280;71040;47.526;18.986;2024-02-23T00:22:51;98436.34;;;9.32;89.77
70314;BME280;71040;47.526;18.986;2024-02-23T00:27:54;98432.03;;;9.31;89.96
70314;BME280;71040;47.526;18.986;2024-02-23T00:32:56;98429.44;;;9.31;90.06
70314;BME280;71040;47.526;18.986;2024-02-23T00:37:59;98435.50;;;9.31;89.65
70314;BME280;71040;47.526;18.986;2024-02-23T00:43:02;98418.16;;;9.30;89.59
70314;BME280;71040;47.526;18.986;2024-02-23T00:48:03;98413.03;;;9.29;89.87
70314;BME280;71040;47.526;18.986;2024-02-23T00:53:06;98419.84;;;9.31;89.65
70314;BME280;71040;47.526;18.986;2024-02-23T00:58:07;98416.47;;;9.29;89.93
70314;BME280;71040;47.526;18.986;2024-02-23T01:03:07;98417.22;;;9.31;89.85
70314;BME280;71040;47.526;18.986;2024-02-23T01:08:10;98407.66;;;9.32;89.82
70314;BME280;71040;47.526;18.986;2024-02-23T01:13:10;98411.09;;;9.32;89.85
70314;BME280;71040;47.526;18.986;2024-02-23T01:18:13;98398.97;;;9.31;89.78
70314;BME280;71040;47.526;18.986;2024-02-23T01:23:13;98407.66;;;9.32;89.96
70314;BME280;71040;47.526;18.986;2024-02-23T01:28:16;98387.63;;;9.32;89.79
70314;BME280;71040;47.526;18.986;2024-02-23T01:33:19;98387.63;;;9.32;89.65
70314;BME280;71040;47.526;18.986;2024-02-23T01:38:19;98384.16;;;9.32;89.69
70314;BME280;71040;47.526;18.986;2024-02-23T01:43:21;98385.00;;;9.32;89.93
70314;BME280;71040;47.526;18.986;2024-02-23T01:48:21;98383.25;;;9.33;89.54
70314;BME280;71040;47.526;18.986;2024-02-23T01:53:24;98370.28;;;9.31;89.80
70314;BME280;71040;47.526;18.986;2024-02-23T01:58:29;98379.78;;;9.32;89.70
70314;BME280;71040;47.526;18.986;2024-02-23T02:03:32;98373.66;;;9.33;89.53
70314;BME280;71040;47.526;18.986;2024-02-23T02:08:35;98374.50;;;9.34;89.92
70314;BME280;71040;47.526;18.986;2024-02-23T02:13:38;98374.50;;;9.34;89.61
70314;BME280;71040;47.526;18.986;2024-02-23T02:18:39;98374.50;;;9.34;89.83
70314;BME280;71040;47.526;18.986;2024-02-23T02:23:39;98372.81;;;9.33;90.08
70314;BME280;71040;47.526;18.986;2024-02-23T02:28:46;98375.31;;;9.34;89.88
70314;BME280;71040;47.526;18.986;2024-02-23T02:33:47;98370.19;;;9.33;90.19
70314;BME280;71040;47.526;18.986;2024-02-23T02:38:47;98371.88;;;9.34;89.93
70314;BME280;71040;47.526;18.986;2024-02-23T02:43:51;98363.22;;;9.33;90.07
70314;BME280;71040;47.526;18.986;2024-02-23T02:48:51;98374.50;;;9.34;89.76
70314;BME280;71040;47.526;18.986;2024-02-23T02:53:56;98380.53;;;9.34;89.78
70314;BME280;71040;47.526;18.986;2024-02-23T02:58:57;98384.16;;;9.32;89.91
70314;BME280;71040;47.526;18.986;2024-02-23T03:03:57;98382.19;;;9.35;89.78
70314;BME280;71040;47.526;18.986;2024-02-23T03:08:57;98378.88;;;9.33;90.16
70314;BME280;71040;47.526;18.986;2024-02-23T03:14:00;98385.75;;;9.34;89.87
70314;BME280;71040;47.526;18.986;2024-02-23T03:19:03;98379.69;;;9.34;89.65
70314;BME280;71040;47.526;18.986;2024-02-23T03:24:03;98390.97;;;9.34;90.26
70314;BME280;71040;47.526;18.986;2024-02-23T03:29:06;98385.00;;;9.32;90.24
70314;BME280;71040;47.526;18.986;2024-02-23T03:34:09;98387.63;;;9.32;90.19
70314;BME280;71040;47.526;18.986;2024-02-23T03:39:12;98389.31;;;9.33;90.07
70314;BME280;71040;47.526;18.986;2024-02-23T03:44:19;98388.38;;;9.34;89.98
70314;BME280;71040;47.526;18.986;2024-02-23T03:49:21;98390.13;;;9.34;90.10
70314;BME280;71040;47.526;18.986;2024-02-23T03:54:24;98378.94;;;9.32;90.19
70314;BME280;71040;47.526;18.986;2024-02-23T03:59:25;98387.53;;;9.34;90.12
70314;BME280;71040;47.526;18.986;2024-02-23T04:04:25;98392.00;;;9.32;90.28
70314;BME280;71040;47.526;18.986;2024-02-23T04:09:25;98394.50;;;9.33;90.36
70314;BME280;71040;47.526;18.986;2024-02-23T04:14:28;98398.88;;;9.33;89.91
70314;BME280;71040;47.526;18.986;2024-02-23T04:19:28;98397.97;;;9.34;89.98
70314;BME280;71040;47.526;18.986;2024-02-23T04:24:31;98397.97;;;9.34;90.02
70314;BME280;71040;47.526;18.986;2024-02-23T04:29:31;98381.56;;;9.32;90.03
70314;BME280;71040;47.526;18.986;2024-02-23T04:34:34;98402.34;;;9.33;90.09
70314;BME280;71040;47.526;18.986;2024-02-23T04:39:37;98400.56;;;9.34;90.11
70314;BME280;71040;47.526;18.986;2024-02-23T04:44:49;98401.50;;;9.33;90.05
70314;BME280;71040;47.526;18.986;2024-02-23T04:49:52;98402.34;;;9.33;89.96
70314;BME280;71040;47.526;18.986;2024-02-23T04:54:55;98405.88;;;9.32;90.05
70314;BME280;71040;47.526;18.986;2024-02-23T04:59:59;98405.03;;;9.32;90.49
70314;BME280;71040;47.526;18.986;2024-02-23T05:05:00;98400.66;;;9.32;90.30
70314;BME280;71040;47.526;18.986;2024-02-23T05:10:00;98417.22;;;9.31;90.06
70314;BME280;71040;47.526;18.986;2024-02-23T05:15:07;98427.56;;;9.33;90.31
70314;BME280;71040;47.526;18.986;2024-02-23T05:20:08;98432.97;;;9.30;90.45
70314;BME280;71040;47.526;18.986;2024-02-23T05:25:10;98422.53;;;9.30;90.10
70314;BME280;71040;47.526;18.986;2024-02-23T05:30:14;98442.38;;;9.32;90.40
70314;BME280;71040;47.526;18.986;2024-02-23T05:35:16;98444.25;;;9.30;90.17
70314;BME280;71040;47.526;18.986;2024-02-23T05:40:20;98453.00;;;9.29;90.83
70314;BME280;71040;47.526;18.986;2024-02-23T05:45:23;98464.19;;;9.31;90.18
70314;BME280;71040;47.526;18.986;2024-02-23T05:50:24;98476.38;;;9.31;90.21
70314;BME280;71040;47.526;18.986;2024-02-23T05:55:26;98484.28;;;9.29;90.65
70314;BME280;71040;47.526;18.986;2024-02-23T06:00:27;98499.00;;;9.30;90.60
70314;BME280;71040;47.526;18.986;2024-02-23T06:05:27;98502.47;;;9.31;90.59
70314;BME280;71040;47.526;18.986;2024-02-23T06:10:30;98505.16;;;9.29;90.29
70314;BME280;71040;47.526;18.986;2024-02-23T06:15:30;98507.75;;;9.29;90.47
70314;BME280;71040;47.526;18.986;2024-02-23T06:20:33;98522.47;;;9.30;90.26
70314;BME280;71040;47.526;18.986;2024-02-23T06:25:33;98519.13;;;9.28;90.24
70314;BME280;71040;47.526;18.986;2024-02-23T06:30:34;98532.91;;;9.30;90.41
70314;BME280;71040;47.526;18.986;2024-02-23T06:35:36;98538.22;;;9.29;90.65
70314;BME280;71040;47.526;18.986;2024-02-23T06:40:40;98539.13;;;9.28;90.49
70314;BME280;71040;47.526;18.986;2024-02-23T06:45:40;98533.84;;;9.29;90.27
70314;BME280;71040;47.526;18.986;2024-02-23T06:50:43;98535.69;;;9.27;90.21
70314;BME280;71040;47.526;18.986;2024-02-23T06:55:46;98538.31;;;9.27;90.44
70314;BME280;71040;47.526;18.986;2024-02-23T07:00:47;98539.22;;;9.26;90.58
70314;BME280;71040;47.526;18.986;2024-02-23T07:05:49;98542.59;;;9.28;90.39
70314;BME280;71040;47.526;18.986;2024-02-23T07:10:52;98555.63;;;9.28;90.47
70314;BME280;71040;47.526;18.986;2024-02-23T07:15:53;98552.25;;;9.26;90.47
70314;BME280;71040;47.526;18.986;2024-02-23T07:20:55;98566.91;;;9.29;90.54
70314;BME280;71040;47.526;18.986;2024-02-23T07:25:56;98570.44;;;9.28;90.38
70314;BME280;71040;47.526;18.986;2024-02-23T07:31:01;98571.28;;;9.28;90.40
70314;BME280;71040;47.526;18.986;2024-02-23T07:36:04;98573.88;;;9.28;90.53
70314;BME280;71040;47.526;18.986;2024-02-23T07:41:04;98576.56;;;9.27;90.78
70314;BME280;71040;47.526;18.986;2024-02-23T07:46:04;98581.78;;;9.27;90.62
70314;BME280;71040;47.526;18.986;2024-02-23T07:51:09;98574.06;;;9.25;90.81
70314;BME280;71040;47.526;18.986;2024-02-23T07:56:13;98582.63;;;9.27;90.76
70314;BME280;71040;47.526;18.986;2024-02-23T08:01:17;98585.25;;;9.27;90.57
70314;BME280;71040;47.526;18.986;2024-02-23T08:06:19;98589.63;;;9.27;90.59
70314;BME280;71040;47.526;18.986;2024-02-23T08:11:20;98592.22;;;9.27;90.90
70314;BME280;71040;47.526;18.986;2024-02-23T08:16:23;98597.44;;;9.27;90.50
70314;BME280;71040;47.526;18.986;2024-02-23T08:21:27;98595.75;;;9.26;90.76
70314;BME280;71040;47.526;18.986;2024-02-23T08:26:27;98595.84;;;9.24;90.67
70314;BME280;71040;47.526;18.986;2024-02-23T08:31:30;98603.59;;;9.26;90.98
70314;BME280;71040;47.526;18.986;2024-02-23T08:36:31;98601.16;;;9.23;90.92
70314;BME280;71040;47.526;18.986;2024-02-23T08:41:33;98609.63;;;9.26;90.80
70314;BME280;71040;47.526;18.986;2024-02-23T08:46:34;98612.31;;;9.25;90.69
70314;BME280;71040;47.526;18.986;2024-02-23T08:51:39;98622.69;;;9.26;90.59
70314;BME280;71040;47.526;18.986;2024-02-23T08:56:42;98631.34;;;9.27;90.75
70314;BME280;71040;47.526;18.986;2024-02-23T09:01:43;98627.91;;;9.26;90.88
70314;BME280;71040;47.526;18.986;2024-02-23T09:06:47;98630.50;;;9.26;90.89
70314;BME280;71040;47.526;18.986;2024-02-23T09:11:49;98639.16;;;9.27;91.16
70314;BME280;71040;47.526;18.986;2024-02-23T09:16:49;98633.09;;;9.26;90.89
70314;BME280;71040;47.526;18.986;2024-02-23T09:21:53;98641.78;;;9.27;90.84
70314;BME280;71040;47.526;18.986;2024-02-23T09:26:53;98633.09;;;9.26;90.99
70314;BME280;71040;47.526;18.986;2024-02-23T09:31:56;98632.25;;;9.26;91.11
70314;BME280;71040;47.526;18.986;2024-02-23T09:36:59;98631.44;;;9.25;90.79
70314;BME280;71040;47.526;18.986;2024-02-23T09:42:01;98622.75;;;9.25;91.01
70314;BME280;71040;47.526;18.986;2024-02-23T09:47:02;98650.44;;;9.27;91.24
70314;BME280;71040;47.526;18.986;2024-02-23T09:52:11;98642.63;;;9.27;91.12
70314;BME280;71040;47.526;18.986;2024-02-23T09:57:11;98634.13;;;9.24;90.99
70314;BME280;71040;47.526;18.986;2024-02-23T10:02:17;98645.22;;;9.27;90.78
70314;BME280;71040;47.526;18.986;2024-02-23T10:07:21;98643.47;;;9.28;90.83
70314;BME280;71040;47.526;18.986;2024-02-23T10:12:21;98652.28;;;9.25;91.07
70314;BME280;71040;47.526;18.986;2024-02-23T10:17:21;98653.13;;;9.26;90.73
70314;BME280;71040;47.526;18.986;2024-02-23T10:22:26;98653.97;;;9.26;91.27
70314;BME280;71040;47.526;18.986;2024-02-23T10:27:30;98660.88;;;9.27;91.09
70314;BME280;71040;47.526;18.986;2024-02-23T10:32:34;98669.44;;;9.29;91.25
70314;BME280;71040;47.526;18.986;2024-02-23T10:37:36;98664.25;;;9.29;90.82
70314;BME280;71040;47.526;18.986;2024-02-23T10:42:39;98665.16;;;9.28;90.93
70314;BME280;71040;47.526;18.986;2024-02-23T10:47:41;98665.09;;;9.30;90.90
70314;BME280;71040;47.526;18.986;2024-02-23T10:52:42;98665.91;;;9.30;91.22
70314;BME280;71040;47.526;18.986;2024-02-23T10:57:48;98660.72;;;9.30;90.93
70314;BME280;71040;47.526;18.986;2024-02-23T11:02:56;98662.47;;;9.30;90.86
70314;BME280;71040;47.526;18.986;2024-02-23T11:08:05;98663.41;;;9.29;91.21
70314;BME280;71040;47.526;18.986;2024-02-23T11:13:09;98663.31;;;9.30;91.01
70314;BME280;71040;47.526;18.986;2024-02-23T11:18:22;98663.31;;;9.30;91.02
70314;BME280;71040;47.526;18.986;2024-02-23T11:23:23;98658.94;;;9.31;91.14
70314;BME280;71040;47.526;18.986;2024-02-23T11:28:25;98662.38;;;9.31;91.26
70314;BME280;71040;47.526;18.986;2024-02-23T11:33:28;98660.63;;;9.32;90.96
70314;BME280;71040;47.526;18.986;2024-02-23T11:38:29;98648.59;;;9.29;91.25
70314;BME280;71040;47.526;18.986;2024-02-23T11:43:29;98649.34;;;9.31;91.39
70314;BME280;71040;47.526;18.986;2024-02-23T11:48:30;98641.44;;;9.33;91.39
70314;BME280;71040;47.526;18.986;2024-02-23T11:53:30;98639.75;;;9.32;91.34
70314;BME280;71040;47.526;18.986;2024-02-23T11:58:35;98627.66;;;9.31;91.14
70314;BME280;71040;47.526;18.986;2024-02-23T12:03:47;98633.69;;;9.31;91.16
70314;BME280;71040;47.526;18.986;2024-02-23T12:08:48;98635.31;;;9.34;91.60
70314;BME280;71040;47.526;18.986;2024-02-23T12:13:49;98628.31;;;9.34;91.22
70314;BME280;71040;47.526;18.986;2024-02-23T12:18:59;98616.09;;;9.35;91.32
70314;BME280;71040;47.526;18.986;2024-02-23T12:24:04;98623.91;;;9.35;91.73
70314;BME280;71040;47.526;18.986;2024-02-23T12:29:07;98622.97;;;9.36;91.68
70314;BME280;71040;47.526;18.986;2024-02-23T12:34:11;98628.19;;;9.36;91.37
70314;BME280;71040;47.526;18.986;2024-02-23T12:39:12;98633.41;;;9.36;91.46
70314;BME280;71040;47.526;18.986;2024-02-23T12:44:12;98635.09;;;9.37;91.52
70314;BME280;71040;47.526;18.986;2024-02-23T12:49:13;98632.56;;;9.35;91.33
70314;BME280;71040;47.526;18.986;2024-02-23T12:54:16;98631.56;;;9.38;91.68
70314;BME280;71040;47.526;18.986;2024-02-23T12:59:16;98630.72;;;9.37;91.70
70314;BME280;71040;47.526;18.986;2024-02-23T13:04:16;98634.09;;;9.39;91.65
70314;BME280;71040;47.526;18.986;2024-02-23T13:09:17;98628.88;;;9.39;91.25
70314;BME280;71040;47.526;18.986;2024-02-23T13:14:17;98637.53;;;9.40;91.57
70314;BME280;71040;47.526;18.986;2024-02-23T13:19:17;98637.47;;;9.41;91.83
70314;BME280;71040;47.526;18.986;2024-02-23T13:24:18;98645.28;;;9.41;91.27
70314;BME280;71040;47.526;18.986;2024-02-23T13:29:21;98642.69;;;9.41;91.52
70314;BME280;71040;47.526;18.986;2024-02-23T13:34:21;98646.97;;;9.42;91.18
70314;BME280;71040;47.526;18.986;2024-02-23T13:39:24;98633.00;;;9.43;91.59
70314;BME280;71040;47.526;18.986;2024-02-23T13:44:24;98631.31;;;9.42;91.27
70314;BME280;71040;47.526;18.986;2024-02-23T13:49:27;98621.63;;;9.44;91.30
70314;BME280;71040;47.526;18.986;2024-02-23T13:54:28;98617.34;;;9.43;91.41
70314;BME280;71040;47.526;18.986;2024-02-23T13:59:31;98611.19;;;9.44;91.12
70314;BME280;71040;47.526;18.986;2024-02-23T14:04:34;98606.91;;;9.43;91.11
70314;BME280;71040;47.526;18.986;2024-02-23T14:09:37;98601.50;;;9.47;91.49
70314;BME280;71040;47.526;18.986;2024-02-23T14:14:39;98605.06;;;9.46;91.38
70314;BME280;71040;47.526;18.986;2024-02-23T14:19:42;98607.66;;;9.46;91.02
70314;BME280;71040;47.526;18.986;2024-02-23T14:24:43;98613.59;;;9.48;91.06
70314;BME280;71040;47.526;18.986;2024-02-23T14:29:49;98613.59;;;9.48;91.20
70314;BME280;71040;47.526;18.986;2024-02-23T14:34:56;98603.94;;;9.50;91.52
70314;BME280;71040;47.526;18.986;2024-02-23T14:39:57;98609.06;;;9.51;91.26
70314;BME280;71040;47.526;18.986;2024-02-23T14:44:57;98607.38;;;9.50;91.24
70314;BME280;71040;47.526;18.986;2024-02-23T14:50:01;98604.78;;;9.50;91.24
70314;BME280;71040;47.526;18.986;2024-02-23T14:55:01;98599.47;;;9.52;91.07
70314;BME280;71040;47.526;18.986;2024-02-23T15:00:04;98602.06;;;9.52;91.28
70314;BME280;71040;47.526;18.986;2024-02-23T15:05:06;98602.91;;;9.52;91.01
70314;BME280;71040;47.526;18.986;2024-02-23T15:10:06;98598.53;;;9.53;91.08
70314;BME280;71040;47.526;18.986;2024-02-23T15:15:11;98598.47;;;9.54;91.05
70314;BME280;71040;47.526;18.986;2024-02-23T15:20:14;98584.56;;;9.54;91.00
70314;BME280;71040;47.526;18.986;2024-02-23T15:25:15;98585.50;;;9.53;91.24
70314;BME280;71040;47.526;18.986;2024-02-23T15:30:20;98588.03;;;9.54;91.11
70314;BME280;71040;47.526;18.986;2024-02-23T15:35:20;98587.09;;;9.55;90.90
70314;BME280;71040;47.526;18.986;2024-02-23T15:40:24;98602.75;;;9.55;91.32
70314;BME280;71040;47.526;18.986;2024-02-23T15:45:26;98594.91;;;9.55;90.91
70314;BME280;71040;47.526;18.986;2024-02-23T15:50:27;98607.88;;;9.57;91.18
70314;BME280;71040;47.526;18.986;2024-02-23T15:55:30;98593.06;;;9.57;91.22
70314;BME280;71040;47.526;18.986;2024-02-23T16:00:33;98588.66;;;9.58;90.81
70314;BME280;71040;47.526;18.986;2024-02-23T16:05:33;98587.84;;;9.57;91.26
70314;BME280;71040;47.526;18.986;2024-02-23T16:10:34;98600.91;;;9.57;91.11
70314;BME280;71040;47.526;18.986;2024-02-23T16:15:35;98592.22;;;9.57;91.08
70314;BME280;71040;47.526;18.986;2024-02-23T16:20:40;98586.88;;;9.58;90.82
70314;BME280;71040;47.526;18.986;2024-02-23T16:25:41;98586.06;;;9.58;91.00
70314;BME280;71040;47.526;18.986;2024-02-23T16:30:44;98585.88;;;9.61;91.19
70314;BME280;71040;47.526;18.986;2024-02-23T16:35:44;98584.28;;;9.58;91.15
70314;BME280;71040;47.526;18.986;2024-02-23T16:40:45;98586.88;;;9.58;91.23
70314;BME280;71040;47.526;18.986;2024-02-23T16:45:50;98591.19;;;9.59;91.25
70314;BME280;71040;47.526;18.986;2024-02-23T16:50:57;98593.78;;;9.59;90.81
70314;BME280;71040;47.526;18.986;2024-02-23T16:56:00;98593.78;;;9.59;90.86
70314;BME280;71040;47.526;18.986;2024-02-23T17:01:04;98596.41;;;9.59;91.03
70314;BME280;71040;47.526;18.986;2024-02-23T17:06:07;98595.56;;;9.59;91.17
70314;BME280;71040;47.526;18.986;2024-02-23T17:11:08;98597.16;;;9.61;90.94
70314;BME280;71040;47.526;18.986;2024-02-23T17:16:09;98598.09;;;9.60;91.20
70314;BME280;71040;47.526;18.986;2024-02-23T17:21:11;98593.72;;;9.61;91.05
70314;BME280;71040;47.526;18.986;2024-02-23T17:26:18;98605.91;;;9.60;90.87
70314;BME280;71040;47.526;18.986;2024-02-23T17:31:21;98593.72;;;9.61;90.91
70314;BME280;71040;47.526;18.986;2024-02-23T17:36:24;98591.94;;;9.61;90.74
70314;BME280;71040;47.526;18.986;2024-02-23T17:41:24;98587.66;;;9.60;91.19
70314;BME280;71040;47.526;18.986;2024-02-23T17:46:27;98578.88;;;9.61;91.14
70314;BME280;71040;47.526;18.986;2024-02-23T17:51:28;98578.88;;;9.61;91.23
70314;BME280;71040;47.526;18.986;2024-02-23T17:56:30;98574.50;;;9.62;90.86
70314;BME280;71040;47.526;18.986;2024-02-23T18:01:34;98575.44;;;9.61;90.91
70314;BME280;71040;47.526;18.986;2024-02-23T18:06:37;98563.22;;;9.61;91.21
70314;BME280;71040;47.526;18.986;2024-02-23T18:11:40;98553.63;;;9.62;90.75
70314;BME280;71040;47.526;18.986;2024-02-23T18:16:40;98548.41;;;9.62;91.30
70314;BME280;71040;47.526;18.986;2024-02-23T18:21:40;98545.81;;;9.62;90.83
70314;BME280;71040;47.526;18.986;2024-02-23T18:26:41;98541.44;;;9.62;90.94
70314;BME280;71040;47.526;18.986;2024-02-23T18:31:41;98540.69;;;9.60;90.87
70314;BME280;71040;47.526;18.986;2024-02-23T18:36:44;98540.50;;;9.63;90.78
70314;BME280;71040;47.526;18.986;2024-02-23T18:41:47;98537.06;;;9.63;91.19
70314;BME280;71040;47.526;18.986;2024-02-23T18:46:50;98526.63;;;9.63;90.90
70314;BME280;71040;47.526;18.986;2024-02-23T18:51:50;98526.63;;;9.63;90.92
70314;BME280;71040;47.526;18.986;2024-02-23T18:56:51;98525.03;;;9.60;91.29
70314;BME280;71040;47.526;18.986;2024-02-23T19:01:55;98521.41;;;9.63;90.81
70314;BME280;71040;47.526;18.986;2024-02-23T19:06:58;98514.41;;;9.63;90.90
70314;BME280;71040;47.526;18.986;2024-02-23T19:11:58;98519.72;;;9.62;91.31
70314;BME280;71040;47.526;18.986;2024-02-23T19:17:03;98520.56;;;9.62;91.36
70314;BME280;71040;47.526;18.986;2024-02-23T19:22:04;98506.66;;;9.62;90.90
70314;BME280;71040;47.526;18.986;2024-02-23T19:27:04;98503.13;;;9.63;90.97
70314;BME280;71040;47.526;18.986;2024-02-23T19:32:05;98508.44;;;9.61;90.68
70314;BME280;71040;47.526;18.986;2024-02-23T19:37:07;98517.03;;;9.63;90.83
70314;BME280;71040;47.526;18.986;2024-02-23T19:42:10;98517.03;;;9.63;91.16
70314;BME280;71040;47.526;18.986;2024-02-23T19:47:12;98511.06;;;9.61;91.12
70314;BME280;71040;47.526;18.986;2024-02-23T19:52:15;98507.50;;;9.62;90.91
70314;BME280;71040;47.526;18.986;2024-02-23T19:57:16;98515.34;;;9.62;91.13
70314;BME280;71040;47.526;18.986;2024-02-23T20:02:17;98518.88;;;9.61;91.22
70314;BME280;71040;47.526;18.986;2024-02-23T20:07:18;98511.06;;;9.61;91.24
70314;BME280;71040;47.526;18.986;2024-02-23T20:12:21;98513.56;;;9.63;91.36
70314;BME280;71040;47.526;18.986;2024-02-23T20:17:26;98513.66;;;9.61;91.38
70314;BME280;71040;47.526;18.986;2024-02-23T20:22:29;98503.59;;;9.55;91.10
70314;BME280;71040;47.526;18.986;2024-02-23T20:27:32;98502.38;;;9.61;91.23
70314;BME280;71040;47.526;18.986;2024-02-23T20:32:32;98499.78;;;9.61;91.04
70314;BME280;71040;47.526;18.986;2024-02-23T20:37:37;98498.09;;;9.60;91.30
70314;BME280;71040;47.526;18.986;2024-02-23T20:42:40;98491.94;;;9.61;91.27
70314;BME280;71040;47.526;18.986;2024-02-23T20:47:41;98501.53;;;9.60;91.13
70314;BME280;71040;47.526;18.986;2024-02-23T20:52:43;98502.38;;;9.61;90.99
70314;BME280;71040;47.526;18.986;2024-02-23T20:57:44;98508.53;;;9.60;91.29
70314;BME280;71040;47.526;18.986;2024-02-23T21:02:44;98494.84;;;9.56;91.45
70314;BME280;71040;47.526;18.986;2024-02-23T21:07:44;98488.59;;;9.59;91.17
70314;BME280;71040;47.526;18.986;2024-02-23T21:12:46;98492.88;;;9.60;91.49
70314;BME280;71040;47.526;18.986;2024-02-23T21:17:46;98515.50;;;9.59;91.37
70314;BME280;71040;47.526;18.986;2024-02-23T21:22:48;98506.75;;;9.60;91.55
70314;BME280;71040;47.526;18.986;2024-02-23T21:27:48;98501.75;;;9.57;91.40
70314;BME280;71040;47.526;18.986;2024-02-23T21:32:55;98511.22;;;9.58;91.45
70314;BME280;71040;47.526;18.986;2024-02-23T21:37:56;98507.78;;;9.58;91.33
70314;BME280;71040;47.526;18.986;2024-02-23T21:42:56;98500.91;;;9.57;91.32
70314;BME280;71040;47.526;18.986;2024-02-23T21:47:59;98513.75;;;9.60;91.29
70314;BME280;71040;47.526;18.986;2024-02-23T21:53:00;98506.00;;;9.58;91.15
70314;BME280;71040;47.526;18.986;2024-02-23T21:58:00;98499.03;;;9.59;91.41
70314;BME280;71040;47.526;18.986;2024-02-23T22:03:00;98505.16;;;9.58;91.37
70314;BME280;71040;47.526;18.986;2024-02-23T22:08:03;98495.78;;;9.55;91.21
70314;BME280;71040;47.526;18.986;2024-02-23T22:13:03;98513.84;;;9.58;91.35
70314;BME280;71040;47.526;18.986;2024-02-23T22:18:04;98508.63;;;9.58;91.52
70314;BME280;71040;47.526;18.986;2024-02-23T22:23:07;98503.41;;;9.58;91.19
70314;BME280;71040;47.526;18.986;2024-02-23T22:28:10;98497.34;;;9.58;91.18
70314;BME280;71040;47.526;18.986;2024-02-23T22:33:10;98499.22;;;9.56;91.53
70314;BME280;71040;47.526;18.986;2024-02-23T22:38:11;98513.84;;;9.58;91.27
70314;BME280;71040;47.526;18.986;2024-02-23T22:43:14;98505.16;;;9.58;91.75
70314;BME280;71040;47.526;18.986;2024-02-23T22:48:17;98495.69;;;9.57;91.54
70314;BME280;71040;47.526;18.986;2024-02-23T22:53:18;98506.13;;;9.57;91.37
70314;BME280;71040;47.526;18.986;2024-02-23T22:58:23;98504.44;;;9.56;91.51
70314;BME280;71040;47.526;18.986;2024-02-23T23:03:23;98507.91;;;9.56;91.62
70314;BME280;71040;47.526;18.986;2024-02-23T23:08:23;98495.88;;;9.54;91.64
70314;BME280;71040;47.526;18.986;2024-02-23T23:13:26;98503.53;;;9.57;91.79
70314;BME280;71040;47.526;18.986;2024-02-23T23:18:27;98493.09;;;9.57;91.62
70314;BME280;71040;47.526;18.986;2024-02-23T23:23:29;98490.47;;;9.57;91.70
70314;BME280;71040;47.526;18.986;2024-02-23T23:28:32;98494.00;;;9.56;91.49
70314;BME280;71040;47.526;18.986;2024-02-23T23:33:32;98490.56;;;9.55;91.28
70314;BME280;71040;47.526;18.986;2024-02-23T23:38:35;98496.72;;;9.54;91.75
70314;BME280;71040;47.526;18.986;2024-02-23T23:43:38;98503.53;;;9.57;91.77
70314;BME280;71040;47.526;18.986;2024-02-23T23:48:38;98498.38;;;9.55;91.45
70314;BME280;71040;47.526;18.986;2024-02-23T23:53:39;98502.75;;;9.55;91.68
70314;BME280;71040;47.526;18.986;2024-02-23T23:58:39;98495.78;;;9.55;91.66
